sensor_id;sensor_type;location;lat;lon;timestamp;P1;durP1;ratioP1;P2;durP2;ratioP2
39740;SDS011;25426;53.478;10.190;2023-04-15T00:01:12;7.22;;;6.28;;
39740;SDS011;25426;53.478;10.190;2023-04-15T00:03:49;7.85;;;6.15;;
39740;SDS011;25426;53.478;10.190;2023-04-15T00:06:22;7.03;;;6.32;;
39740;SDS011;25426;53.478;10.190;2023-04-15T00:08:53;8.27;;;6.30;;
39740;SDS011;25426;53.478;10.190;2023-04-15T00:11:24;7.82;;;6.28;;
39740;SDS011;25426;53.478;10.190;2023-04-15T00:13:55;7.72;;;6.70;;
39740;SDS011;25426;53.478;10.190;2023-04-15T00:16:27;7.30;;;6.43;;
39740;SDS011;25426;53.478;10.190;2023-04-15T00:18:58;6.95;;;6.25;;
39740;SDS011;25426;53.478;10.190;2023-04-15T00:21:29;11.23;;;6.40;;
39740;SDS011;25426;53.478;10.190;2023-04-15T00:24:01;8.00;;;6.38;;
39740;SDS011;25426;53.478;10.190;2023-04-15T00:26:32;9.05;;;6.45;;
39740;SDS011;25426;53.478;10.190;2023-04-15T00:29:04;7.03;;;6.07;;
39740;SDS011;25426;53.478;10.190;2023-04-15T00:31:35;7.70;;;6.75;;
39740;SDS011;25426;53.478;10.190;2023-04-15T00:34:07;8.52;;;6.57;;
39740;SDS011;25426;53.478;10.190;2023-04-15T00:36:38;7.18;;;6.47;;
39740;SDS011;25426;53.478;10.190;2023-04-15T00:39:09;9.38;;;7.30;;
39740;SDS011;25426;53.478;10.190;2023-04-15T00:41:40;7.72;;;6.93;;
39740;SDS011;25426;53.478;10.190;2023-04-15T00:44:12;7.07;;;6.22;;
39740;SDS011;25426;53.478;10.190;2023-04-15T00:46:43;7.65;;;6.55;;
39740;SDS011;25426;53.478;10.190;2023-04-15T00:49:15;7.45;;;6.70;;
39740;SDS011;25426;53.478;10.190;2023-04-15T00:51:47;7.95;;;6.22;;
39740;SDS011;25426;53.478;10.190;2023-04-15T00:54:18;9.63;;;6.65;;
39740;SDS011;25426;53.478;10.190;2023-04-15T00:56:49;6.72;;;5.95;;
39740;SDS011;25426;53.478;10.190;2023-04-15T00:59:20;6.90;;;6.20;;
39740;SDS011;25426;53.478;10.190;2023-04-15T01:01:51;9.38;;;6.72;;
39740;SDS011;25426;53.478;10.190;2023-04-15T01:04:22;7.60;;;5.95;;
39740;SDS011;25426;53.478;10.190;2023-04-15T01:06:53;8.02;;;6.60;;
39740;SDS011;25426;53.478;10.190;2023-04-15T01:09:25;9.10;;;6.10;;
39740;SDS011;25426;53.478;10.190;2023-04-15T01:11:56;7.95;;;6.55;;
39740;SDS011;25426;53.478;10.190;2023-04-15T01:14:28;7.90;;;7.10;;
39740;SDS011;25426;53.478;10.190;2023-04-15T01:16:59;7.30;;;6.57;;
39740;SDS011;25426;53.478;10.190;2023-04-15T01:19:30;7.60;;;6.35;;
39740;SDS011;25426;53.478;10.190;2023-04-15T01:22:01;7.00;;;6.30;;
39740;SDS011;25426;53.478;10.190;2023-04-15T01:24:34;8.55;;;7.13;;
39740;SDS011;25426;53.478;10.190;2023-04-15T01:27:05;9.02;;;6.45;;
39740;SDS011;25426;53.478;10.190;2023-04-15T01:29:37;7.35;;;6.35;;
39740;SDS011;25426;53.478;10.190;2023-04-15T01:32:09;7.88;;;6.30;;
39740;SDS011;25426;53.478;10.190;2023-04-15T01:34:40;7.47;;;6.70;;
39740;SDS011;25426;53.478;10.190;2023-04-15T01:37:11;7.20;;;6.45;;
39740;SDS011;25426;53.478;10.190;2023-04-15T01:39:42;8.40;;;6.78;;
39740;SDS011;25426;53.478;10.190;2023-04-15T01:42:13;6.65;;;5.97;;
39740;SDS011;25426;53.478;10.190;2023-04-15T01:44:46;7.57;;;6.32;;
39740;SDS011;25426;53.478;10.190;2023-04-15T01:47:16;7.43;;;6.03;;
39740;SDS011;25426;53.478;10.190;2023-04-15T01:49:47;7.88;;;7.10;;
39740;SDS011;25426;53.478;10.190;2023-04-15T01:52:18;7.10;;;6.18;;
39740;SDS011;25426;53.478;10.190;2023-04-15T01:54:49;8.73;;;6.80;;
39740;SDS011;25426;53.478;10.190;2023-04-15T01:57:22;6.72;;;6.00;;
39740;SDS011;25426;53.478;10.190;2023-04-15T01:59:55;8.70;;;7.75;;
39740;SDS011;25426;53.478;10.190;2023-04-15T02:02:26;8.40;;;6.85;;
39740;SDS011;25426;53.478;10.190;2023-04-15T02:04:59;8.45;;;7.28;;
39740;SDS011;25426;53.478;10.190;2023-04-15T02:07:30;8.07;;;6.82;;
39740;SDS011;25426;53.478;10.190;2023-04-15T02:10:01;8.40;;;7.00;;
39740;SDS011;25426;53.478;10.190;2023-04-15T02:12:33;8.13;;;6.50;;
39740;SDS011;25426;53.478;10.190;2023-04-15T02:15:04;8.90;;;7.72;;
39740;SDS011;25426;53.478;10.190;2023-04-15T02:17:36;8.10;;;6.68;;
39740;SDS011;25426;53.478;10.190;2023-04-15T02:20:07;10.25;;;8.18;;
39740;SDS011;25426;53.478;10.190;2023-04-15T02:22:39;8.63;;;6.93;;
39740;SDS011;25426;53.478;10.190;2023-04-15T02:25:10;13.23;;;8.27;;
39740;SDS011;25426;53.478;10.190;2023-04-15T02:27:41;11.15;;;9.00;;
39740;SDS011;25426;53.478;10.190;2023-04-15T02:30:13;12.70;;;9.77;;
39740;SDS011;25426;53.478;10.190;2023-04-15T02:32:44;11.10;;;9.10;;
39740;SDS011;25426;53.478;10.190;2023-04-15T02:35:15;14.43;;;9.77;;
39740;SDS011;25426;53.478;10.190;2023-04-15T02:37:48;14.00;;;9.40;;
39740;SDS011;25426;53.478;10.190;2023-04-15T02:40:20;11.70;;;9.30;;
39740;SDS011;25426;53.478;10.190;2023-04-15T02:42:51;13.95;;;10.80;;
39740;SDS011;25426;53.478;10.190;2023-04-15T02:45:22;14.40;;;11.00;;
39740;SDS011;25426;53.478;10.190;2023-04-15T02:47:56;11.98;;;9.50;;
39740;SDS011;25426;53.478;10.190;2023-04-15T02:50:27;14.90;;;11.02;;
39740;SDS011;25426;53.478;10.190;2023-04-15T02:52:58;15.25;;;11.75;;
39740;SDS011;25426;53.478;10.190;2023-04-15T02:55:30;13.13;;;10.80;;
39740;SDS011;25426;53.478;10.190;2023-04-15T02:58:01;15.38;;;11.52;;
39740;SDS011;25426;53.478;10.190;2023-04-15T03:00:32;17.58;;;12.45;;
39740;SDS011;25426;53.478;10.190;2023-04-15T03:03:04;19.00;;;12.23;;
39740;SDS011;25426;53.478;10.190;2023-04-15T03:05:36;15.63;;;12.13;;
39740;SDS011;25426;53.478;10.190;2023-04-15T03:08:08;20.10;;;14.25;;
39740;SDS011;25426;53.478;10.190;2023-04-15T03:10:39;21.70;;;14.27;;
39740;SDS011;25426;53.478;10.190;2023-04-15T03:13:10;18.88;;;13.20;;
39740;SDS011;25426;53.478;10.190;2023-04-15T03:15:42;22.30;;;15.10;;
39740;SDS011;25426;53.478;10.190;2023-04-15T03:18:16;18.92;;;13.98;;
39740;SDS011;25426;53.478;10.190;2023-04-15T03:20:47;20.77;;;14.45;;
39740;SDS011;25426;53.478;10.190;2023-04-15T03:23:18;21.92;;;15.75;;
39740;SDS011;25426;53.478;10.190;2023-04-15T03:25:49;26.00;;;16.42;;
39740;SDS011;25426;53.478;10.190;2023-04-15T03:28:20;22.23;;;15.23;;
39740;SDS011;25426;53.478;10.190;2023-04-15T03:30:51;25.45;;;17.10;;
39740;SDS011;25426;53.478;10.190;2023-04-15T03:33:22;26.65;;;17.42;;
39740;SDS011;25426;53.478;10.190;2023-04-15T03:35:53;23.67;;;16.27;;
39740;SDS011;25426;53.478;10.190;2023-04-15T03:38:24;22.58;;;16.10;;
39740;SDS011;25426;53.478;10.190;2023-04-15T03:40:56;25.15;;;16.95;;
39740;SDS011;25426;53.478;10.190;2023-04-15T03:43:26;27.17;;;16.33;;
39740;SDS011;25426;53.478;10.190;2023-04-15T03:45:57;23.17;;;15.10;;
39740;SDS011;25426;53.478;10.190;2023-04-15T03:48:28;26.08;;;15.88;;
39740;SDS011;25426;53.478;10.190;2023-04-15T03:51:00;27.90;;;17.75;;
39740;SDS011;25426;53.478;10.190;2023-04-15T03:53:31;25.92;;;16.80;;
39740;SDS011;25426;53.478;10.190;2023-04-15T03:56:02;24.77;;;16.65;;
39740;SDS011;25426;53.478;10.190;2023-04-15T03:58:33;25.85;;;17.08;;
39740;SDS011;25426;53.478;10.190;2023-04-15T04:01:03;26.80;;;16.73;;
39740;SDS011;25426;53.478;10.190;2023-04-15T04:03:35;25.17;;;16.55;;
39740;SDS011;25426;53.478;10.190;2023-04-15T04:06:06;28.27;;;17.35;;
39740;SDS011;25426;53.478;10.190;2023-04-15T04:08:37;22.15;;;15.32;;
39740;SDS011;25426;53.478;10.190;2023-04-15T04:11:08;27.27;;;16.80;;
39740;SDS011;25426;53.478;10.190;2023-04-15T04:13:39;23.90;;;15.88;;
39740;SDS011;25426;53.478;10.190;2023-04-15T04:16:10;22.92;;;15.05;;
39740;SDS011;25426;53.478;10.190;2023-04-15T04:18:41;27.95;;;17.63;;
39740;SDS011;25426;53.478;10.190;2023-04-15T04:21:12;25.40;;;16.73;;
39740;SDS011;25426;53.478;10.190;2023-04-15T04:23:43;27.05;;;16.42;;
39740;SDS011;25426;53.478;10.190;2023-04-15T04:26:14;26.63;;;17.35;;
39740;SDS011;25426;53.478;10.190;2023-04-15T04:28:45;26.05;;;17.38;;
39740;SDS011;25426;53.478;10.190;2023-04-15T04:31:16;26.83;;;17.98;;
39740;SDS011;25426;53.478;10.190;2023-04-15T04:33:47;24.95;;;17.58;;
39740;SDS011;25426;53.478;10.190;2023-04-15T04:36:18;27.15;;;18.67;;
39740;SDS011;25426;53.478;10.190;2023-04-15T04:38:49;31.45;;;20.85;;
39740;SDS011;25426;53.478;10.190;2023-04-15T04:41:20;37.63;;;21.35;;
39740;SDS011;25426;53.478;10.190;2023-04-15T04:43:51;32.72;;;21.23;;
39740;SDS011;25426;53.478;10.190;2023-04-15T04:46:22;33.63;;;22.63;;
39740;SDS011;25426;53.478;10.190;2023-04-15T04:48:53;36.67;;;22.38;;
39740;SDS011;25426;53.478;10.190;2023-04-15T04:51:24;38.95;;;23.58;;
39740;SDS011;25426;53.478;10.190;2023-04-15T04:53:55;42.58;;;23.75;;
39740;SDS011;25426;53.478;10.190;2023-04-15T04:56:26;38.42;;;21.70;;
39740;SDS011;25426;53.478;10.190;2023-04-15T04:58:57;40.15;;;23.88;;
39740;SDS011;25426;53.478;10.190;2023-04-15T05:01:28;41.08;;;23.70;;
39740;SDS011;25426;53.478;10.190;2023-04-15T05:03:59;43.95;;;26.15;;
39740;SDS011;25426;53.478;10.190;2023-04-15T05:06:30;49.75;;;26.63;;
39740;SDS011;25426;53.478;10.190;2023-04-15T05:09:02;45.28;;;26.35;;
39740;SDS011;25426;53.478;10.190;2023-04-15T05:11:34;48.42;;;28.45;;
39740;SDS011;25426;53.478;10.190;2023-04-15T05:14:05;48.10;;;27.95;;
39740;SDS011;25426;53.478;10.190;2023-04-15T05:16:36;47.15;;;29.00;;
39740;SDS011;25426;53.478;10.190;2023-04-15T05:19:07;46.00;;;28.70;;
39740;SDS011;25426;53.478;10.190;2023-04-15T05:21:38;44.40;;;28.88;;
39740;SDS011;25426;53.478;10.190;2023-04-15T05:24:09;49.95;;;30.30;;
39740;SDS011;25426;53.478;10.190;2023-04-15T05:26:40;53.35;;;31.35;;
39740;SDS011;25426;53.478;10.190;2023-04-15T05:29:11;52.97;;;32.05;;
39740;SDS011;25426;53.478;10.190;2023-04-15T05:31:42;48.22;;;30.67;;
39740;SDS011;25426;53.478;10.190;2023-04-15T05:34:13;54.97;;;32.45;;
39740;SDS011;25426;53.478;10.190;2023-04-15T05:36:47;55.78;;;33.65;;
39740;SDS011;25426;53.478;10.190;2023-04-15T05:39:18;58.20;;;33.88;;
39740;SDS011;25426;53.478;10.190;2023-04-15T05:41:49;56.33;;;33.20;;
39740;SDS011;25426;53.478;10.190;2023-04-15T05:44:20;54.13;;;32.70;;
39740;SDS011;25426;53.478;10.190;2023-04-15T05:46:51;58.85;;;35.00;;
39740;SDS011;25426;53.478;10.190;2023-04-15T05:49:22;56.08;;;35.65;;
39740;SDS011;25426;53.478;10.190;2023-04-15T05:51:53;56.40;;;35.45;;
39740;SDS011;25426;53.478;10.190;2023-04-15T05:54:24;54.97;;;35.45;;
39740;SDS011;25426;53.478;10.190;2023-04-15T05:56:56;55.33;;;35.05;;
39740;SDS011;25426;53.478;10.190;2023-04-15T05:59:28;56.03;;;37.10;;
39740;SDS011;25426;53.478;10.190;2023-04-15T06:01:58;56.60;;;36.50;;
39740;SDS011;25426;53.478;10.190;2023-04-15T06:04:29;61.58;;;37.40;;
39740;SDS011;25426;53.478;10.190;2023-04-15T06:07:01;57.78;;;37.47;;
39740;SDS011;25426;53.478;10.190;2023-04-15T06:09:32;56.83;;;36.40;;
39740;SDS011;25426;53.478;10.190;2023-04-15T06:12:03;60.05;;;36.05;;
39740;SDS011;25426;53.478;10.190;2023-04-15T06:14:35;61.05;;;37.80;;
39740;SDS011;25426;53.478;10.190;2023-04-15T06:17:08;59.47;;;37.42;;
39740;SDS011;25426;53.478;10.190;2023-04-15T06:19:39;56.30;;;36.22;;
39740;SDS011;25426;53.478;10.190;2023-04-15T06:22:10;62.47;;;37.05;;
39740;SDS011;25426;53.478;10.190;2023-04-15T06:24:40;61.00;;;40.17;;
39740;SDS011;25426;53.478;10.190;2023-04-15T06:27:11;62.53;;;39.20;;
39740;SDS011;25426;53.478;10.190;2023-04-15T06:29:42;64.00;;;40.40;;
39740;SDS011;25426;53.478;10.190;2023-04-15T06:32:13;65.00;;;41.20;;
39740;SDS011;25426;53.478;10.190;2023-04-15T06:34:44;59.42;;;38.70;;
39740;SDS011;25426;53.478;10.190;2023-04-15T06:37:15;61.85;;;39.83;;
39740;SDS011;25426;53.478;10.190;2023-04-15T06:39:46;55.95;;;36.53;;
39740;SDS011;25426;53.478;10.190;2023-04-15T06:42:17;60.17;;;39.50;;
39740;SDS011;25426;53.478;10.190;2023-04-15T06:44:48;63.35;;;41.70;;
39740;SDS011;25426;53.478;10.190;2023-04-15T06:47:19;63.30;;;40.17;;
39740;SDS011;25426;53.478;10.190;2023-04-15T06:49:50;60.08;;;38.22;;
39740;SDS011;25426;53.478;10.190;2023-04-15T06:52:21;67.13;;;46.72;;
39740;SDS011;25426;53.478;10.190;2023-04-15T06:54:52;66.90;;;45.20;;
39740;SDS011;25426;53.478;10.190;2023-04-15T06:57:23;66.47;;;50.53;;
39740;SDS011;25426;53.478;10.190;2023-04-15T06:59:54;64.07;;;40.47;;
39740;SDS011;25426;53.478;10.190;2023-04-15T07:02:25;57.25;;;38.58;;
39740;SDS011;25426;53.478;10.190;2023-04-15T07:04:56;61.28;;;40.67;;
39740;SDS011;25426;53.478;10.190;2023-04-15T07:07:27;60.20;;;41.28;;
39740;SDS011;25426;53.478;10.190;2023-04-15T07:09:58;66.00;;;42.17;;
39740;SDS011;25426;53.478;10.190;2023-04-15T07:12:31;64.07;;;41.97;;
39740;SDS011;25426;53.478;10.190;2023-04-15T07:15:02;59.08;;;41.88;;
39740;SDS011;25426;53.478;10.190;2023-04-15T07:17:33;59.95;;;40.63;;
39740;SDS011;25426;53.478;10.190;2023-04-15T07:20:05;58.83;;;38.60;;
39740;SDS011;25426;53.478;10.190;2023-04-15T07:22:37;60.05;;;41.63;;
39740;SDS011;25426;53.478;10.190;2023-04-15T07:25:08;57.67;;;39.20;;
39740;SDS011;25426;53.478;10.190;2023-04-15T07:27:39;59.38;;;42.05;;
39740;SDS011;25426;53.478;10.190;2023-04-15T07:30:10;62.15;;;39.92;;
39740;SDS011;25426;53.478;10.190;2023-04-15T07:32:42;58.22;;;39.42;;
39740;SDS011;25426;53.478;10.190;2023-04-15T07:35:13;55.35;;;38.25;;
39740;SDS011;25426;53.478;10.190;2023-04-15T07:37:44;60.83;;;43.55;;
39740;SDS011;25426;53.478;10.190;2023-04-15T07:40:15;57.45;;;39.42;;
39740;SDS011;25426;53.478;10.190;2023-04-15T07:42:46;53.88;;;40.42;;
39740;SDS011;25426;53.478;10.190;2023-04-15T07:45:18;54.63;;;38.60;;
39740;SDS011;25426;53.478;10.190;2023-04-15T07:47:49;54.03;;;38.78;;
39740;SDS011;25426;53.478;10.190;2023-04-15T07:50:20;54.88;;;41.45;;
39740;SDS011;25426;53.478;10.190;2023-04-15T07:52:52;71.00;;;52.05;;
39740;SDS011;25426;53.478;10.190;2023-04-15T07:55:23;54.95;;;39.72;;
39740;SDS011;25426;53.478;10.190;2023-04-15T07:57:55;55.58;;;40.25;;
39740;SDS011;25426;53.478;10.190;2023-04-15T08:00:32;49.30;;;39.47;;
39740;SDS011;25426;53.478;10.190;2023-04-15T08:03:03;48.50;;;37.33;;
39740;SDS011;25426;53.478;10.190;2023-04-15T08:05:37;52.72;;;39.50;;
39740;SDS011;25426;53.478;10.190;2023-04-15T08:08:08;57.85;;;40.25;;
39740;SDS011;25426;53.478;10.190;2023-04-15T08:10:39;58.38;;;41.92;;
39740;SDS011;25426;53.478;10.190;2023-04-15T08:13:10;50.03;;;40.53;;
39740;SDS011;25426;53.478;10.190;2023-04-15T08:15:41;52.63;;;40.28;;
39740;SDS011;25426;53.478;10.190;2023-04-15T08:18:12;58.85;;;43.45;;
39740;SDS011;25426;53.478;10.190;2023-04-15T08:20:43;53.33;;;40.83;;
39740;SDS011;25426;53.478;10.190;2023-04-15T08:23:14;52.47;;;40.50;;
39740;SDS011;25426;53.478;10.190;2023-04-15T08:25:48;53.28;;;38.88;;
39740;SDS011;25426;53.478;10.190;2023-04-15T08:28:21;54.33;;;39.03;;
39740;SDS011;25426;53.478;10.190;2023-04-15T08:30:52;48.50;;;38.22;;
39740;SDS011;25426;53.478;10.190;2023-04-15T08:33:23;51.78;;;40.70;;
39740;SDS011;25426;53.478;10.190;2023-04-15T08:35:55;49.83;;;39.35;;
39740;SDS011;25426;53.478;10.190;2023-04-15T08:38:26;47.85;;;37.95;;
39740;SDS011;25426;53.478;10.190;2023-04-15T08:40:57;49.78;;;39.50;;
39740;SDS011;25426;53.478;10.190;2023-04-15T08:43:45;47.67;;;38.97;;
39740;SDS011;25426;53.478;10.190;2023-04-15T08:46:31;51.75;;;38.53;;
39740;SDS011;25426;53.478;10.190;2023-04-15T08:49:04;48.45;;;38.85;;
39740;SDS011;25426;53.478;10.190;2023-04-15T08:51:36;51.80;;;41.10;;
39740;SDS011;25426;53.478;10.190;2023-04-15T08:54:08;52.22;;;41.67;;
39740;SDS011;25426;53.478;10.190;2023-04-15T08:56:39;52.58;;;40.80;;
39740;SDS011;25426;53.478;10.190;2023-04-15T08:59:10;49.75;;;39.03;;
39740;SDS011;25426;53.478;10.190;2023-04-15T09:01:41;51.13;;;39.38;;
39740;SDS011;25426;53.478;10.190;2023-04-15T09:04:13;52.25;;;40.72;;
39740;SDS011;25426;53.478;10.190;2023-04-15T09:06:44;52.60;;;40.38;;
39740;SDS011;25426;53.478;10.190;2023-04-15T09:09:15;59.90;;;44.50;;
39740;SDS011;25426;53.478;10.190;2023-04-15T09:11:46;56.53;;;42.65;;
39740;SDS011;25426;53.478;10.190;2023-04-15T09:14:19;55.70;;;41.92;;
39740;SDS011;25426;53.478;10.190;2023-04-15T09:17:02;51.45;;;39.42;;
39740;SDS011;25426;53.478;10.190;2023-04-15T09:19:33;56.42;;;41.55;;
39740;SDS011;25426;53.478;10.190;2023-04-15T09:22:04;49.67;;;38.50;;
39740;SDS011;25426;53.478;10.190;2023-04-15T09:24:36;46.70;;;37.88;;
39740;SDS011;25426;53.478;10.190;2023-04-15T09:27:09;47.85;;;37.97;;
39740;SDS011;25426;53.478;10.190;2023-04-15T09:29:40;46.95;;;37.45;;
39740;SDS011;25426;53.478;10.190;2023-04-15T09:32:13;43.05;;;37.72;;
39740;SDS011;25426;53.478;10.190;2023-04-15T09:34:46;42.38;;;35.47;;
39740;SDS011;25426;53.478;10.190;2023-04-15T09:37:17;40.55;;;35.70;;
39740;SDS011;25426;53.478;10.190;2023-04-15T09:39:51;35.75;;;31.52;;
39740;SDS011;25426;53.478;10.190;2023-04-15T09:42:22;37.08;;;31.02;;
39740;SDS011;25426;53.478;10.190;2023-04-15T09:44:53;34.38;;;29.90;;
39740;SDS011;25426;53.478;10.190;2023-04-15T09:47:28;35.33;;;28.17;;
39740;SDS011;25426;53.478;10.190;2023-04-15T09:50:01;30.73;;;27.17;;
39740;SDS011;25426;53.478;10.190;2023-04-15T09:52:32;29.90;;;26.83;;
39740;SDS011;25426;53.478;10.190;2023-04-15T09:55:03;28.77;;;25.67;;
39740;SDS011;25426;53.478;10.190;2023-04-15T09:57:37;28.70;;;25.85;;
39740;SDS011;25426;53.478;10.190;2023-04-15T10:00:10;26.27;;;23.65;;
39740;SDS011;25426;53.478;10.190;2023-04-15T10:02:42;25.45;;;22.17;;
39740;SDS011;25426;53.478;10.190;2023-04-15T10:05:13;25.60;;;22.92;;
39740;SDS011;25426;53.478;10.190;2023-04-15T10:07:46;26.00;;;23.23;;
39740;SDS011;25426;53.478;10.190;2023-04-15T10:10:17;26.20;;;23.30;;
39740;SDS011;25426;53.478;10.190;2023-04-15T10:12:49;25.92;;;23.17;;
39740;SDS011;25426;53.478;10.190;2023-04-15T10:17:52;37.58;;;28.77;;
39740;SDS011;25426;53.478;10.190;2023-04-15T10:20:23;26.52;;;23.98;;
39740;SDS011;25426;53.478;10.190;2023-04-15T10:22:55;29.83;;;24.63;;
39740;SDS011;25426;53.478;10.190;2023-04-15T10:25:26;83.18;;;40.97;;
39740;SDS011;25426;53.478;10.190;2023-04-15T10:27:58;29.35;;;22.73;;
39740;SDS011;25426;53.478;10.190;2023-04-15T10:30:30;24.40;;;21.90;;
39740;SDS011;25426;53.478;10.190;2023-04-15T10:33:03;22.90;;;20.42;;
39740;SDS011;25426;53.478;10.190;2023-04-15T10:35:35;24.88;;;22.33;;
39740;SDS011;25426;53.478;10.190;2023-04-15T10:46:43;21.40;;;19.27;;
39740;SDS011;25426;53.478;10.190;2023-04-15T10:49:16;24.15;;;20.08;;
39740;SDS011;25426;53.478;10.190;2023-04-15T10:51:58;23.45;;;20.95;;
39740;SDS011;25426;53.478;10.190;2023-04-15T10:54:30;23.25;;;20.95;;
39740;SDS011;25426;53.478;10.190;2023-04-15T11:02:44;22.10;;;19.90;;
39740;SDS011;25426;53.478;10.190;2023-04-15T11:05:47;22.85;;;20.67;;
39740;SDS011;25426;53.478;10.190;2023-04-15T11:08:21;23.48;;;21.00;;
39740;SDS011;25426;53.478;10.190;2023-04-15T11:12:03;22.33;;;19.92;;
39740;SDS011;25426;53.478;10.190;2023-04-15T11:14:39;23.30;;;20.58;;
39740;SDS011;25426;53.478;10.190;2023-04-15T11:17:12;22.63;;;20.30;;
39740;SDS011;25426;53.478;10.190;2023-04-15T11:19:43;22.35;;;20.08;;
39740;SDS011;25426;53.478;10.190;2023-04-15T11:22:14;21.08;;;18.77;;
39740;SDS011;25426;53.478;10.190;2023-04-15T11:27:29;21.88;;;19.58;;
39740;SDS011;25426;53.478;10.190;2023-04-15T11:33:10;21.85;;;18.80;;
39740;SDS011;25426;53.478;10.190;2023-04-15T11:35:42;20.15;;;18.17;;
39740;SDS011;25426;53.478;10.190;2023-04-15T11:38:14;19.88;;;17.50;;
39740;SDS011;25426;53.478;10.190;2023-04-15T11:40:49;19.95;;;18.05;;
39740;SDS011;25426;53.478;10.190;2023-04-15T11:43:21;19.60;;;17.60;;
39740;SDS011;25426;53.478;10.190;2023-04-15T11:45:56;20.20;;;18.10;;
39740;SDS011;25426;53.478;10.190;2023-04-15T11:48:30;21.02;;;19.00;;
39740;SDS011;25426;53.478;10.190;2023-04-15T11:51:05;20.45;;;18.55;;
39740;SDS011;25426;53.478;10.190;2023-04-15T11:53:42;19.33;;;17.33;;
39740;SDS011;25426;53.478;10.190;2023-04-15T11:56:21;19.55;;;17.65;;
39740;SDS011;25426;53.478;10.190;2023-04-15T11:58:58;20.00;;;18.00;;
39740;SDS011;25426;53.478;10.190;2023-04-15T12:01:35;19.98;;;18.05;;
39740;SDS011;25426;53.478;10.190;2023-04-15T12:04:17;18.08;;;16.25;;
39740;SDS011;25426;53.478;10.190;2023-04-15T12:06:50;18.92;;;17.10;;
39740;SDS011;25426;53.478;10.190;2023-04-15T12:09:21;18.58;;;16.77;;
39740;SDS011;25426;53.478;10.190;2023-04-15T12:11:55;17.67;;;15.88;;
39740;SDS011;25426;53.478;10.190;2023-04-15T12:14:28;17.75;;;16.02;;
39740;SDS011;25426;53.478;10.190;2023-04-15T12:17:03;16.80;;;14.90;;
39740;SDS011;25426;53.478;10.190;2023-04-15T12:19:39;16.33;;;14.82;;
39740;SDS011;25426;53.478;10.190;2023-04-15T12:22:12;17.35;;;15.65;;
39740;SDS011;25426;53.478;10.190;2023-04-15T12:24:45;15.23;;;13.77;;
39740;SDS011;25426;53.478;10.190;2023-04-15T12:27:17;16.75;;;15.15;;
39740;SDS011;25426;53.478;10.190;2023-04-15T12:29:48;16.60;;;14.85;;
39740;SDS011;25426;53.478;10.190;2023-04-15T12:32:19;16.45;;;14.65;;
39740;SDS011;25426;53.478;10.190;2023-04-15T12:34:52;16.35;;;14.88;;
39740;SDS011;25426;53.478;10.190;2023-04-15T12:37:24;16.35;;;14.82;;
39740;SDS011;25426;53.478;10.190;2023-04-15T12:39:55;15.85;;;14.20;;
39740;SDS011;25426;53.478;10.190;2023-04-15T12:42:26;17.00;;;15.40;;
39740;SDS011;25426;53.478;10.190;2023-04-15T12:44:57;17.02;;;14.73;;
39740;SDS011;25426;53.478;10.190;2023-04-15T12:47:28;15.85;;;14.25;;
39740;SDS011;25426;53.478;10.190;2023-04-15T12:49:59;16.33;;;14.65;;
39740;SDS011;25426;53.478;10.190;2023-04-15T12:52:29;16.70;;;14.45;;
39740;SDS011;25426;53.478;10.190;2023-04-15T12:55:00;15.57;;;14.15;;
39740;SDS011;25426;53.478;10.190;2023-04-15T12:57:31;16.52;;;14.80;;
39740;SDS011;25426;53.478;10.190;2023-04-15T13:00:02;15.65;;;14.05;;
39740;SDS011;25426;53.478;10.190;2023-04-15T13:02:36;16.48;;;14.27;;
39740;SDS011;25426;53.478;10.190;2023-04-15T13:05:07;15.40;;;13.95;;
39740;SDS011;25426;53.478;10.190;2023-04-15T13:07:39;16.08;;;14.55;;
39740;SDS011;25426;53.478;10.190;2023-04-15T13:10:10;18.27;;;15.57;;
39740;SDS011;25426;53.478;10.190;2023-04-15T13:12:41;15.68;;;14.18;;
39740;SDS011;25426;53.478;10.190;2023-04-15T13:15:12;18.17;;;16.30;;
39740;SDS011;25426;53.478;10.190;2023-04-15T13:17:43;16.98;;;14.73;;
39740;SDS011;25426;53.478;10.190;2023-04-15T13:20:14;18.80;;;16.13;;
39740;SDS011;25426;53.478;10.190;2023-04-15T13:22:46;17.38;;;15.68;;
39740;SDS011;25426;53.478;10.190;2023-04-15T13:25:17;19.77;;;17.38;;
39740;SDS011;25426;53.478;10.190;2023-04-15T13:27:48;17.35;;;15.65;;
39740;SDS011;25426;53.478;10.190;2023-04-15T13:30:19;18.38;;;16.55;;
39740;SDS011;25426;53.478;10.190;2023-04-15T13:32:50;18.35;;;16.17;;
39740;SDS011;25426;53.478;10.190;2023-04-15T13:35:22;19.67;;;16.77;;
39740;SDS011;25426;53.478;10.190;2023-04-15T13:37:53;18.13;;;16.23;;
39740;SDS011;25426;53.478;10.190;2023-04-15T13:40:25;18.73;;;17.02;;
39740;SDS011;25426;53.478;10.190;2023-04-15T13:42:56;16.50;;;14.90;;
39740;SDS011;25426;53.478;10.190;2023-04-15T13:45:27;17.83;;;16.13;;
39740;SDS011;25426;53.478;10.190;2023-04-15T13:47:58;18.75;;;15.57;;
39740;SDS011;25426;53.478;10.190;2023-04-15T13:50:30;17.05;;;15.35;;
39740;SDS011;25426;53.478;10.190;2023-04-15T13:53:01;17.60;;;15.85;;
39740;SDS011;25426;53.478;10.190;2023-04-15T13:55:32;16.23;;;14.52;;
39740;SDS011;25426;53.478;10.190;2023-04-15T13:58:04;17.00;;;15.32;;
39740;SDS011;25426;53.478;10.190;2023-04-15T14:00:35;17.15;;;14.52;;
39740;SDS011;25426;53.478;10.190;2023-04-15T14:03:06;16.80;;;15.10;;
39740;SDS011;25426;53.478;10.190;2023-04-15T14:05:37;16.40;;;14.60;;
39740;SDS011;25426;53.478;10.190;2023-04-15T14:08:08;15.60;;;14.10;;
39740;SDS011;25426;53.478;10.190;2023-04-15T14:10:39;16.83;;;15.13;;
39740;SDS011;25426;53.478;10.190;2023-04-15T14:13:13;17.55;;;15.70;;
39740;SDS011;25426;53.478;10.190;2023-04-15T14:15:44;15.07;;;13.55;;
39740;SDS011;25426;53.478;10.190;2023-04-15T14:18:15;13.90;;;12.50;;
39740;SDS011;25426;53.478;10.190;2023-04-15T14:20:46;13.63;;;12.32;;
39740;SDS011;25426;53.478;10.190;2023-04-15T14:23:17;14.40;;;12.98;;
39740;SDS011;25426;53.478;10.190;2023-04-15T14:25:49;13.82;;;12.52;;
39740;SDS011;25426;53.478;10.190;2023-04-15T14:28:22;14.63;;;13.05;;
39740;SDS011;25426;53.478;10.190;2023-04-15T14:30:54;15.93;;;14.25;;
39740;SDS011;25426;53.478;10.190;2023-04-15T14:33:25;16.05;;;14.55;;
39740;SDS011;25426;53.478;10.190;2023-04-15T14:35:56;15.90;;;14.30;;
39740;SDS011;25426;53.478;10.190;2023-04-15T14:38:27;16.23;;;13.35;;
39740;SDS011;25426;53.478;10.190;2023-04-15T14:40:58;13.85;;;12.48;;
39740;SDS011;25426;53.478;10.190;2023-04-15T14:43:30;14.65;;;12.98;;
39740;SDS011;25426;53.478;10.190;2023-04-15T14:46:01;14.43;;;13.02;;
39740;SDS011;25426;53.478;10.190;2023-04-15T14:48:32;14.55;;;13.20;;
39740;SDS011;25426;53.478;10.190;2023-04-15T14:51:03;14.57;;;13.18;;
39740;SDS011;25426;53.478;10.190;2023-04-15T14:53:35;14.82;;;13.50;;
39740;SDS011;25426;53.478;10.190;2023-04-15T14:56:06;13.85;;;12.50;;
39740;SDS011;25426;53.478;10.190;2023-04-15T14:58:37;13.68;;;12.27;;
39740;SDS011;25426;53.478;10.190;2023-04-15T15:01:08;15.57;;;13.32;;
39740;SDS011;25426;53.478;10.190;2023-04-15T15:03:39;15.25;;;13.27;;